Scottsmoor, Florida
Current Conditions -  °F | °C
As of 2:58 PM on Friday 28 Nov 2014 (Local Time) from KTTS Reporting Station
Clear Clear  
Wind Chill: 61°   Ceiling: Unl
Heat Index: 61°   Visibility: 10mi
Dew Point: 45°   Wind: 13mph
Humidity: 55%   Direction: 10°N
Pressure: 30.24"   Gusts: 22mph
Location:  28.77°N, 80.88°W
Report Text: KTTS 281958Z AUTO 01011G19KT 10SM CLR 16/07 A3024 RMK AO2 SLP243
Loading
Personal Weather Stations






























Interactive Weather Map New forecast layout! Learn more

10-Day Weather Forecast

Advertisements
Track Severe Weather on mobile